createdAt,value
2023-02-19T00:01:26.213Z,100938.22
2023-02-19T00:03:55.682Z,100931.41
2023-02-19T00:06:24.839Z,100929.16
2023-02-19T00:08:51.500Z,100927.50
2023-02-19T00:11:21.049Z,100925.84
2023-02-19T00:13:51.642Z,100910.75
2023-02-19T00:16:21.651Z,100921.47
2023-02-19T00:18:48.881Z,100913.69
2023-02-19T00:21:16.308Z,100920.47
2023-02-19T00:23:44.961Z,100926.16
2023-02-19T00:26:18.517Z,100926.69
2023-02-19T00:28:47.047Z,100914.66
2023-02-19T00:31:26.827Z,100929.53
2023-02-19T00:33:56.934Z,100927.00
2023-02-19T00:36:24.085Z,100928.53
2023-02-19T00:38:50.900Z,100926.66
2023-02-19T00:41:20.178Z,100924.81
2023-02-19T00:44:02.787Z,100926.41
2023-02-19T00:46:35.418Z,100925.44
2023-02-19T00:49:02.008Z,100925.22
2023-02-19T00:51:31.305Z,100931.75
2023-02-19T00:53:58.273Z,100922.34
2023-02-19T00:56:25.078Z,100921.13
2023-02-19T00:58:51.610Z,100925.38
2023-02-19T01:01:18.911Z,100926.16
2023-02-19T01:03:46.133Z,100925.25
2023-02-19T01:06:15.384Z,100928.44
2023-02-19T01:08:42.162Z,100927.44
2023-02-19T01:11:10.479Z,100926.34
2023-02-19T01:13:38.201Z,100930.50
2023-02-19T01:16:11.483Z,100934.75
2023-02-19T01:18:38.028Z,100938.13
2023-02-19T01:21:07.283Z,100937.41
2023-02-19T01:23:34.560Z,100943.06
2023-02-19T01:26:04.539Z,100940.44
2023-02-19T01:28:31.029Z,100947.09
2023-02-19T01:31:01.895Z,100951.78
2023-02-19T01:33:28.466Z,100954.91
2023-02-19T01:35:54.942Z,100954.91
2023-02-19T01:38:21.442Z,100953.16
2023-02-19T01:40:59.033Z,100948.91
2023-02-19T01:43:25.566Z,100950.44
2023-02-19T01:45:52.213Z,100942.00
2023-02-19T01:48:29.534Z,100941.00
2023-02-19T01:51:02.574Z,100941.66
2023-02-19T01:53:36.442Z,100929.72
2023-02-19T01:56:04.450Z,100936.41
2023-02-19T01:58:34.375Z,100937.16
2023-02-19T02:01:03.402Z,100929.50
2023-02-19T02:03:31.215Z,100936.19
2023-02-19T02:06:02.938Z,100929.25
2023-02-19T02:08:49.843Z,100937.16
2023-02-19T02:11:16.856Z,100924.47
2023-02-19T02:13:43.662Z,100932.03
2023-02-19T02:16:25.658Z,100922.72
2023-02-19T02:19:00.781Z,100925.13
2023-02-19T02:21:35.552Z,100921.72
2023-02-19T02:24:26.326Z,100917.34
2023-02-19T02:27:10.108Z,100926.75
2023-02-19T02:29:58.488Z,100930.03
2023-02-19T02:32:27.269Z,100934.91
2023-02-19T02:34:58.619Z,100932.41
2023-02-19T02:37:28.219Z,100925.16
2023-02-19T02:39:58.134Z,100933.06
2023-02-19T02:42:27.700Z,100940.72
2023-02-19T02:45:31.599Z,100939.72
2023-02-19T02:47:58.446Z,100940.47
2023-02-19T02:50:32.447Z,100941.22
2023-02-19T02:53:25.028Z,100939.38
2023-02-19T02:55:54.362Z,100946.03
2023-02-19T02:58:24.164Z,100945.25
2023-02-19T03:01:14.980Z,100948.53
2023-02-19T03:03:45.216Z,100939.25
2023-02-19T03:06:15.235Z,100942.53
2023-02-19T03:08:51.594Z,100946.03
2023-02-19T03:11:36.977Z,100948.63
2023-02-19T03:14:49.348Z,100961.09
2023-02-19T03:17:44.925Z,100960.75
2023-02-19T03:20:15.777Z,100966.50
2023-02-19T03:22:45.458Z,100966.38
2023-02-19T03:25:38.956Z,100952.47
2023-02-19T03:28:09.421Z,100964.94
2023-02-19T03:30:42.718Z,100966.56
2023-02-19T03:33:14.437Z,100965.66
2023-02-19T03:35:55.694Z,100964.94
2023-02-19T03:38:28.022Z,100968.09
2023-02-19T03:41:03.875Z,100971.47
2023-02-19T03:43:40.742Z,100971.31
2023-02-19T03:46:13.429Z,100978.88
2023-02-19T03:48:57.216Z,100981.88
2023-02-19T03:51:41.650Z,100980.16
2023-02-19T03:54:34.307Z,100982.88
2023-02-19T03:57:31.306Z,100987.16
2023-02-19T04:00:18.649Z,100988.81
2023-02-19T04:02:58.434Z,100998.09
2023-02-19T04:05:31.958Z,100995.34
2023-02-19T04:08:06.311Z,100995.44
2023-02-19T04:10:33.589Z,100995.34
2023-02-19T04:13:06.437Z,101011.00
2023-02-19T04:15:35.094Z,101023.56
2023-02-19T04:18:07.312Z,101013.44
2023-02-19T04:20:42.488Z,101018.53
2023-02-19T04:23:09.338Z,101014.44
2023-02-19T04:25:38.243Z,101026.06
2023-02-19T04:28:05.208Z,101037.03
2023-02-19T04:30:32.635Z,101036.25
2023-02-19T04:32:59.367Z,101044.66
2023-02-19T04:35:26.081Z,101048.81
2023-02-19T04:37:52.717Z,101050.44
2023-02-19T04:40:19.576Z,101053.69
2023-02-19T04:42:46.271Z,101053.09
2023-02-19T04:45:12.972Z,101061.63
2023-02-19T04:47:39.646Z,101072.41
2023-02-19T04:50:06.474Z,101068.75
2023-02-19T04:52:35.885Z,101076.44
2023-02-19T04:55:02.586Z,101073.06
2023-02-19T04:57:29.266Z,101078.06
2023-02-19T04:59:55.969Z,101078.94
2023-02-19T05:02:22.662Z,101084.84
2023-02-19T05:04:49.339Z,101083.97
2023-02-19T05:07:16.047Z,101094.78
2023-02-19T05:09:42.720Z,101099.81
2023-02-19T05:12:09.398Z,101088.84
2023-02-19T05:14:36.072Z,101094.78
2023-02-19T05:17:02.827Z,101085.59
2023-02-19T05:19:29.598Z,101101.41
2023-02-19T05:21:56.471Z,101108.84
2023-02-19T05:24:24.382Z,101105.31
2023-02-19T05:26:51.109Z,101110.06
2023-02-19T05:29:17.781Z,101109.19
2023-02-19T05:31:44.524Z,101114.72
2023-02-19T05:34:11.544Z,101123.78
2023-02-19T05:36:39.282Z,101130.91
2023-02-19T05:39:09.448Z,101133.19
2023-02-19T05:41:36.200Z,101132.66
2023-02-19T05:44:02.980Z,101131.41
2023-02-19T05:46:30.155Z,101133.56
2023-02-19T05:48:58.271Z,101134.81
2023-02-19T05:51:26.532Z,101133.28
2023-02-19T05:53:53.796Z,101146.22
2023-02-19T05:56:27.390Z,101139.03
2023-02-19T05:58:54.816Z,101148.53
2023-02-19T06:01:23.770Z,101151.44
2023-02-19T06:03:50.832Z,101154.16
2023-02-19T06:06:19.501Z,101163.53
2023-02-19T06:08:46.266Z,101174.66
2023-02-19T06:11:13.107Z,101185.06
2023-02-19T06:13:40.427Z,101190.53
2023-02-19T06:16:08.677Z,101191.16
2023-02-19T06:18:35.609Z,101193.13
2023-02-19T06:21:06.839Z,101195.25
2023-02-19T06:23:33.898Z,101204.88
2023-02-19T06:26:10.748Z,101208.19
2023-02-19T06:28:37.784Z,101204.84
2023-02-19T06:31:05.658Z,101218.59
2023-02-19T06:33:32.812Z,101226.75
2023-02-19T06:36:02.196Z,101241.63
2023-02-19T06:38:29.868Z,101240.34
2023-02-19T06:41:01.374Z,101237.44
2023-02-19T06:43:28.553Z,101248.94
2023-02-19T06:45:58.156Z,101257.94
2023-02-19T06:48:26.349Z,101262.22
2023-02-19T06:50:53.686Z,101258.69
2023-02-19T06:53:20.471Z,101273.81
2023-02-19T06:56:05.484Z,101279.75
2023-02-19T06:58:33.271Z,101284.75
2023-02-19T07:01:00.321Z,101290.63
2023-02-19T07:03:27.040Z,101289.75
2023-02-19T07:05:53.930Z,101298.25
2023-02-19T07:08:20.583Z,101296.78
2023-02-19T07:10:55.461Z,101295.91
2023-02-19T07:13:22.659Z,101302.69
2023-02-19T07:15:51.724Z,101297.53
2023-02-19T07:18:18.605Z,101306.69
2023-02-19T07:20:45.249Z,101315.22
2023-02-19T07:23:11.702Z,101308.56
2023-02-19T07:25:38.725Z,101320.50
2023-02-19T07:28:05.952Z,101330.66
2023-02-19T07:30:32.566Z,101344.22
2023-02-19T07:32:59.258Z,101349.47
2023-02-19T07:35:25.787Z,101360.69
2023-02-19T07:37:52.367Z,101360.94
2023-02-19T07:40:19.082Z,101356.09
2023-02-19T07:42:45.609Z,101359.72
2023-02-19T07:45:12.078Z,101371.19
2023-02-19T07:47:38.597Z,101373.09
2023-02-19T07:50:05.302Z,101378.50
2023-02-19T07:52:33.781Z,101384.84
2023-02-19T07:55:00.240Z,101386.13
2023-02-19T07:57:31.133Z,101390.06
2023-02-19T07:59:58.735Z,101398.75
2023-02-19T08:02:43.603Z,101410.06
2023-02-19T08:05:10.629Z,101415.50
2023-02-19T08:07:37.632Z,101421.38
2023-02-19T08:10:23.404Z,101423.28
2023-02-19T08:16:26.687Z,101425.34
2023-02-19T08:19:00.154Z,101432.84
2023-02-19T08:21:26.792Z,101427.84
2023-02-19T08:23:53.308Z,101428.09
2023-02-19T08:26:19.756Z,101432.53
2023-02-19T08:28:46.393Z,101432.81
2023-02-19T08:31:13.289Z,101432.19
2023-02-19T08:33:40.108Z,101428.34
2023-02-19T08:36:08.676Z,101435.25
2023-02-19T08:38:36.632Z,101438.16
2023-02-19T08:41:08.859Z,101435.91
2023-02-19T08:43:36.264Z,101448.00
2023-02-19T08:46:03.357Z,101449.88
2023-02-19T08:48:30.244Z,101461.97
2023-02-19T08:50:58.241Z,101461.50
2023-02-19T08:53:25.204Z,101456.88
2023-02-19T08:55:52.655Z,101459.53
2023-02-19T08:58:19.226Z,101463.66
2023-02-19T09:00:47.243Z,101475.88
2023-02-19T09:03:13.854Z,101485.44
2023-02-19T09:05:40.924Z,101490.88
2023-02-19T09:08:08.643Z,101492.91
2023-02-19T09:10:35.393Z,101498.44
2023-02-19T09:13:02.615Z,101506.38
2023-02-19T09:15:29.708Z,101515.09
2023-02-19T09:17:56.673Z,101506.19
2023-02-19T09:20:23.466Z,101503.94
2023-02-19T09:22:50.332Z,101509.38
2023-02-19T09:25:17.201Z,101508.91
2023-02-19T09:27:43.818Z,101515.97
2023-02-19T09:30:10.636Z,101518.09
2023-02-19T09:32:37.153Z,101519.25
2023-02-19T09:35:03.866Z,101519.41
2023-02-19T09:37:31.264Z,101521.41
2023-02-19T09:39:59.083Z,101529.22
2023-02-19T09:42:32.512Z,101541.31
2023-02-19T09:45:00.974Z,101544.97
2023-02-19T09:47:30.400Z,101547.88
2023-02-19T09:50:01.134Z,101544.09
2023-02-19T09:52:49.700Z,101553.69
2023-02-19T09:55:19.002Z,101551.56
2023-02-19T09:57:46.994Z,101559.25
2023-02-19T10:00:26.532Z,101566.16
2023-02-19T10:02:59.410Z,101580.63
2023-02-19T10:05:26.369Z,101587.69
2023-02-19T10:07:55.393Z,101592.25
2023-02-19T10:10:29.191Z,101599.69
2023-02-19T10:13:02.605Z,101601.84
2023-02-19T10:15:38.031Z,101603.25
2023-02-19T10:18:05.872Z,101609.69
2023-02-19T10:20:33.034Z,101607.69
2023-02-19T10:23:05.372Z,101615.28
2023-02-19T10:25:33.705Z,101617.41
2023-02-19T10:28:01.706Z,101618.81
2023-02-19T10:30:31.663Z,101608.28
2023-02-19T10:33:04.349Z,101607.50
2023-02-19T10:35:36.266Z,101608.50
2023-02-19T10:38:06.622Z,101608.66
2023-02-19T10:40:33.740Z,101619.34
2023-02-19T10:43:04.114Z,101623.25
2023-02-19T10:45:45.051Z,101614.72
2023-02-19T10:48:27.945Z,101622.16
2023-02-19T10:51:04.791Z,101624.81
2023-02-19T10:53:45.954Z,101625.06
2023-02-19T10:56:24.125Z,101626.56
2023-02-19T10:58:51.166Z,101634.88
2023-02-19T11:01:23.142Z,101639.16
2023-02-19T11:03:52.327Z,101646.44
2023-02-19T11:06:26.619Z,101656.53
2023-02-19T11:08:59.123Z,101661.84
2023-02-19T11:11:38.007Z,101653.00
2023-02-19T11:14:15.670Z,101673.75
2023-02-19T11:17:05.507Z,101668.91
2023-02-19T11:19:38.903Z,101669.41
2023-02-19T11:22:35.541Z,101659.13
2023-02-19T11:25:17.849Z,101669.81
2023-02-19T11:28:08.380Z,101676.44
2023-02-19T11:30:43.832Z,101670.88
2023-02-19T11:33:16.747Z,101676.97
2023-02-19T11:35:44.204Z,101666.59
2023-02-19T11:38:13.154Z,101667.75
2023-02-19T11:40:45.488Z,101672.53
2023-02-19T11:43:47.426Z,101676.59
2023-02-19T11:46:24.748Z,101674.44
2023-02-19T11:49:36.098Z,101680.59
2023-02-19T11:52:17.315Z,101679.72
2023-02-19T11:54:54.566Z,101682.09
2023-02-19T11:57:42.913Z,101674.09
2023-02-19T12:00:22.517Z,101666.41
2023-02-19T12:03:10.993Z,101672.56
2023-02-19T12:05:47.666Z,101672.09
2023-02-19T12:08:36.662Z,101670.09
2023-02-19T12:11:28.273Z,101673.63
2023-02-19T12:14:30.492Z,101689.50
2023-02-19T12:17:33.991Z,101675.22
2023-02-19T12:20:07.399Z,101667.78
2023-02-19T12:22:44.660Z,101674.22
2023-02-19T12:25:34.313Z,101672.22
2023-02-19T12:28:21.789Z,101678.63
2023-02-19T12:31:16.401Z,101685.03
2023-02-19T12:34:10.135Z,101688.31
2023-02-19T12:36:50.827Z,101693.50
2023-02-19T12:39:17.551Z,101702.34
2023-02-19T12:42:00.694Z,101702.59
2023-02-19T12:44:51.332Z,101711.81
2023-02-19T12:47:29.888Z,101705.75
2023-02-19T12:50:05.874Z,101707.88
2023-02-19T12:52:40.292Z,101701.63
2023-02-19T12:55:29.557Z,101700.69
2023-02-19T12:58:01.338Z,101695.50
2023-02-19T13:00:35.863Z,101694.34
2023-02-19T13:03:21.145Z,101694.63
2023-02-19T13:05:53.813Z,101686.50
2023-02-19T13:08:34.137Z,101686.22
2023-02-19T13:11:05.529Z,101684.03
2023-02-19T13:13:42.244Z,101681.00
2023-02-19T13:16:18.089Z,101683.53
2023-02-19T13:18:56.254Z,101671.41
2023-02-19T13:21:46.278Z,101677.59
2023-02-19T13:24:28.810Z,101671.41
2023-02-19T13:27:20.142Z,101678.88
2023-02-19T13:30:03.631Z,101680.03
2023-02-19T13:32:55.115Z,101677.28
2023-02-19T13:35:29.080Z,101671.13
2023-02-19T13:38:01.314Z,101676.59
2023-02-19T13:40:37.501Z,101689.59
2023-02-19T13:43:23.744Z,101684.09
2023-02-19T13:45:57.176Z,101677.56
2023-02-19T13:48:23.827Z,101664.72
2023-02-19T13:51:11.561Z,101670.28
2023-02-19T13:53:44.989Z,101677.47
2023-02-19T13:56:29.788Z,101683.03
2023-02-19T13:59:12.325Z,101684.56
2023-02-19T14:01:53.978Z,101694.66
2023-02-19T14:04:23.773Z,101698.94
2023-02-19T14:07:05.664Z,101694.78
2023-02-19T14:09:41.146Z,101702.34
2023-02-19T14:12:07.760Z,101701.69
2023-02-19T14:14:42.960Z,101709.41
2023-02-19T14:17:09.568Z,101701.84
2023-02-19T14:19:42.176Z,101711.16
2023-02-19T14:22:47.591Z,101707.84
2023-02-19T14:25:47.049Z,101700.28
2023-02-19T14:28:19.304Z,101715.41
2023-02-19T14:30:52.082Z,101705.88
2023-02-19T14:33:26.396Z,101697.94
2023-02-19T14:35:57.678Z,101697.03
2023-02-19T14:38:29.849Z,101696.03
2023-02-19T14:40:58.330Z,101682.44
2023-02-19T14:43:27.668Z,101690.09
2023-02-19T14:46:01.144Z,101683.31
2023-02-19T14:48:32.988Z,101685.84
2023-02-19T14:51:15.122Z,101686.47
2023-02-19T14:53:44.612Z,101679.53
2023-02-19T14:56:24.891Z,101679.13
2023-02-19T14:59:22.204Z,101689.75
2023-02-19T15:01:57.473Z,101683.56
2023-02-19T15:04:28.813Z,101680.81
2023-02-19T15:06:57.279Z,101677.16
2023-02-19T15:09:36.856Z,101682.59
2023-02-19T15:12:04.177Z,101686.13
2023-02-19T15:14:33.369Z,101670.88
2023-02-19T15:17:03.950Z,101676.69
2023-02-19T15:19:35.193Z,101675.78
2023-02-19T15:22:02.330Z,101683.97
2023-02-19T15:24:29.022Z,101679.56
2023-02-19T15:26:56.199Z,101682.59
2023-02-19T15:29:25.344Z,101684.00
2023-02-19T15:31:58.718Z,101674.28
2023-02-19T15:34:28.093Z,101669.88
2023-02-19T15:37:00.978Z,101667.88
2023-02-19T15:39:36.170Z,101666.88
2023-02-19T15:42:05.341Z,101678.22
2023-02-19T15:44:42.327Z,101675.56
2023-02-19T15:47:17.512Z,101676.09
2023-02-19T15:49:53.361Z,101668.16
2023-02-19T15:52:37.456Z,101672.69
2023-02-19T15:55:21.601Z,101681.59
2023-02-19T15:57:58.523Z,101697.84
2023-02-19T16:00:36.361Z,101698.22
2023-02-19T16:03:04.013Z,101702.75
2023-02-19T16:05:36.938Z,101707.38
2023-02-19T16:08:21.398Z,101704.34
2023-02-19T16:10:56.999Z,101700.91
2023-02-19T16:13:28.681Z,101712.63
2023-02-19T16:16:04.453Z,101719.78
2023-02-19T16:18:33.369Z,101717.66
2023-02-19T16:21:01.012Z,101713.72
2023-02-19T16:23:27.613Z,101709.91
2023-02-19T16:25:59.918Z,101710.38
2023-02-19T16:28:29.385Z,101710.50
2023-02-19T16:31:05.374Z,101711.84
2023-02-19T16:33:31.909Z,101718.13
2023-02-19T16:36:15.349Z,101715.22
2023-02-19T16:38:58.002Z,101714.66
2023-02-19T16:41:24.876Z,101720.94
2023-02-19T16:43:51.426Z,101729.56
2023-02-19T16:46:17.982Z,101727.53
2023-02-19T16:48:44.530Z,101727.13
2023-02-19T16:51:18.012Z,101719.03
2023-02-19T16:53:44.595Z,101725.16
2023-02-19T16:56:18.524Z,101715.31
2023-02-19T16:58:45.045Z,101723.94
2023-02-19T17:01:12.012Z,101729.56
2023-02-19T17:03:39.429Z,101732.41
2023-02-19T17:06:06.302Z,101733.63
2023-02-19T17:08:43.945Z,101729.81
2023-02-19T17:11:13.739Z,101733.53
2023-02-19T17:13:41.745Z,101728.09
2023-02-19T17:16:16.739Z,101728.53
2023-02-19T17:18:43.443Z,101725.50
2023-02-19T17:21:27.690Z,101731.13
2023-02-19T17:23:55.721Z,101728.31
2023-02-19T17:26:25.933Z,101747.53
2023-02-19T17:28:52.595Z,101738.25
2023-02-19T17:31:19.420Z,101732.31
2023-02-19T17:33:46.733Z,101721.41
2023-02-19T17:36:26.854Z,101718.00
2023-02-19T17:38:54.421Z,101721.25
2023-02-19T17:41:21.388Z,101724.66
2023-02-19T17:43:48.166Z,101722.88
2023-02-19T17:46:16.102Z,101728.94
2023-02-19T17:48:42.814Z,101728.06
2023-02-19T17:51:09.853Z,101726.41
2023-02-19T17:53:36.794Z,101729.81
2023-02-19T17:56:03.609Z,101731.44
2023-02-19T17:58:30.470Z,101738.09
2023-02-19T18:00:57.142Z,101733.81
2023-02-19T18:03:24.581Z,101752.00
2023-02-19T18:05:51.259Z,101754.38
2023-02-19T18:08:18.178Z,101758.38
2023-02-19T18:10:46.273Z,101765.91
2023-02-19T18:13:13.275Z,101760.59
2023-02-19T18:15:39.958Z,101767.50
2023-02-19T18:18:07.797Z,101765.00
2023-02-19T18:20:34.950Z,101771.81
2023-02-19T18:23:02.141Z,101773.44
2023-02-19T18:25:28.807Z,101767.50
2023-02-19T18:27:55.737Z,101770.31
2023-02-19T18:30:23.488Z,101779.59
2023-02-19T18:32:50.600Z,101774.75
2023-02-19T18:35:18.635Z,101770.44
2023-02-19T18:37:45.602Z,101774.59
2023-02-19T18:40:12.621Z,101777.09
2023-02-19T18:42:39.986Z,101774.47
2023-02-19T18:45:07.228Z,101767.50
2023-02-19T18:47:33.942Z,101770.59
2023-02-19T18:50:00.724Z,101772.38
2023-02-19T18:52:27.584Z,101766.75
2023-02-19T18:54:55.547Z,101766.88
2023-02-19T18:57:26.116Z,101761.28
2023-02-19T18:59:52.955Z,101758.75
2023-02-19T19:02:20.006Z,101744.41
2023-02-19T19:04:51.873Z,101749.75
2023-02-19T19:07:19.993Z,101747.34
2023-02-19T19:09:47.302Z,101745.72
2023-02-19T19:12:14.272Z,101749.25
2023-02-19T19:14:40.976Z,101740.22
2023-02-19T19:17:07.691Z,101741.00
2023-02-19T19:19:34.446Z,101738.59
2023-02-19T19:22:01.177Z,101734.47
2023-02-19T19:24:27.824Z,101737.72
2023-02-19T19:26:54.488Z,101735.34
2023-02-19T19:29:22.185Z,101732.56
2023-02-19T19:31:49.536Z,101731.81
2023-02-19T19:34:17.074Z,101732.56
2023-02-19T19:36:44.298Z,101734.94
2023-02-19T19:39:11.553Z,101725.50
2023-02-19T19:41:38.246Z,101727.72
2023-02-19T19:44:06.786Z,101729.34
2023-02-19T19:46:34.004Z,101728.22
2023-02-19T19:49:00.938Z,101728.78
2023-02-19T19:51:32.565Z,101728.50
2023-02-19T19:53:59.524Z,101735.78
2023-02-19T19:56:26.204Z,101726.19
2023-02-19T19:58:52.944Z,101726.66
2023-02-19T20:01:21.211Z,101727.09
2023-02-19T20:03:48.049Z,101730.97
2023-02-19T20:06:14.781Z,101733.06
2023-02-19T20:08:41.491Z,101739.41
2023-02-19T20:11:08.186Z,101736.47
2023-02-19T20:13:34.992Z,101741.94
2023-02-19T20:16:01.750Z,101737.09
2023-02-19T20:18:28.470Z,101747.75
2023-02-19T20:20:55.376Z,101745.53
2023-02-19T20:23:22.315Z,101748.50
2023-02-19T20:25:49.038Z,101740.53
2023-02-19T20:28:16.203Z,101732.56
2023-02-19T20:30:43.732Z,101718.72
2023-02-19T20:33:10.556Z,101708.56
2023-02-19T20:35:37.260Z,101718.75
2023-02-19T20:38:03.967Z,101714.16
2023-02-19T20:40:32.230Z,101704.75
2023-02-19T20:43:00.840Z,101720.22
2023-02-19T20:45:28.298Z,101722.47
2023-02-19T20:47:54.950Z,101713.03
2023-02-19T20:50:23.166Z,101711.13
2023-02-19T20:52:49.853Z,101715.22
2023-02-19T20:55:16.701Z,101706.53
2023-02-19T20:57:43.349Z,101709.03
2023-02-19T21:00:11.160Z,101706.09
2023-02-19T21:02:37.921Z,101711.56
2023-02-19T21:05:04.787Z,101710.69
2023-02-19T21:07:31.642Z,101714.78
2023-02-19T21:09:58.319Z,101713.03
2023-02-19T21:12:25.000Z,101715.69
2023-02-19T21:14:51.728Z,101720.84
2023-02-19T21:17:18.402Z,101705.94
2023-02-19T21:19:48.229Z,101706.97
2023-02-19T21:22:15.929Z,101708.88
2023-02-19T21:24:42.641Z,101669.97
2023-02-19T21:27:09.574Z,101704.31
2023-02-19T21:29:36.251Z,101710.78
2023-02-19T21:32:03.039Z,101714.00
2023-02-19T21:34:29.964Z,101715.47
2023-02-19T21:36:56.815Z,101706.88
2023-02-19T21:39:25.178Z,101711.75
2023-02-19T21:41:52.024Z,101704.19
2023-02-19T21:44:20.941Z,101710.66
2023-02-19T21:46:48.010Z,101707.09
2023-02-19T21:49:14.756Z,101699.84
2023-02-19T21:51:43.832Z,101706.94
2023-02-19T21:54:24.683Z,101695.41
2023-02-19T21:56:52.509Z,101683.75
2023-02-19T21:59:22.947Z,101679.88
2023-02-19T22:01:50.522Z,101680.00
2023-02-19T22:04:20.534Z,101673.25
2023-02-19T22:06:47.250Z,101661.25
2023-02-19T22:09:14.703Z,101660.13
2023-02-19T22:11:41.732Z,101663.78
2023-02-19T22:14:08.902Z,101667.91
2023-02-19T22:16:35.690Z,101660.38
2023-02-19T22:19:02.456Z,101662.16
2023-02-19T22:21:33.892Z,101658.91
2023-02-19T22:24:02.118Z,101641.75
2023-02-19T22:26:32.797Z,101640.41
2023-02-19T22:28:59.856Z,101630.47
2023-02-19T22:31:28.076Z,101633.91
2023-02-19T22:33:56.490Z,101643.94
2023-02-19T22:36:25.774Z,101632.28
2023-02-19T22:38:52.861Z,101633.44
2023-02-19T22:41:20.690Z,101641.09
2023-02-19T22:43:48.355Z,101646.25
2023-02-19T22:46:17.461Z,101659.09
2023-02-19T22:48:44.420Z,101655.84
2023-02-19T22:51:13.172Z,101653.59
2023-02-19T22:53:44.763Z,101655.66
2023-02-19T22:56:12.285Z,101662.72
2023-02-19T22:58:39.724Z,101668.00
2023-02-19T23:01:06.663Z,101651.28
2023-02-19T23:03:33.434Z,101652.72
2023-02-19T23:06:03.850Z,101654.63
2023-02-19T23:08:30.504Z,101654.91
2023-02-19T23:10:57.207Z,101651.66
2023-02-19T23:13:23.900Z,101645.88
2023-02-19T23:15:50.573Z,101662.09
2023-02-19T23:18:17.257Z,101651.44
2023-02-19T23:20:43.937Z,101641.28
2023-02-19T23:23:10.634Z,101639.31
2023-02-19T23:25:37.289Z,101640.19
2023-02-19T23:28:04.134Z,101623.47
2023-02-19T23:30:30.900Z,101622.59
2023-02-19T23:32:57.639Z,101624.34
2023-02-19T23:35:24.341Z,101621.97
2023-02-19T23:37:51.174Z,101614.44
2023-02-19T23:40:18.894Z,101608.78
2023-02-19T23:42:45.573Z,101604.03
2023-02-19T23:45:12.256Z,101587.19
2023-02-19T23:47:38.902Z,101594.50
2023-02-19T23:50:06.163Z,101592.00
2023-02-19T23:52:32.877Z,101592.16
2023-02-19T23:54:59.535Z,101586.03
2023-02-19T23:57:26.282Z,101586.28
2023-02-19T23:59:52.983Z,101576.50
